Time;durP1;ratioP1;P1;durP2;ratioP2;P2;SDS_P1;SDS_P2;PMS_P1;PMS_P2;Temp;Humidity;BMP_temperature;BMP_pressure;BME280_temperature;BME280_humidity;BME280_pressure;Samples;Min_cycle;Max_cycle;Signal;HPM_P1;HPM_P2
2022/10/19 00:01:52;;;;;;;;;;;19.70;73.00;;;;;;4494393;31;19965;-79
2022/10/19 00:04:18;;;;;;;;;;;19.70;73.10;;;;;;4494238;31;19970;-79
2022/10/19 00:06:44;;;;;;;;;;;19.70;73.00;;;;;;4494025;31;20014;-80
2022/10/19 00:09:14;;;;;;;;;;;19.70;73.00;;;;;;4494447;31;19969;-79
2022/10/19 00:11:41;;;;;;;;;;;19.70;73.00;;;;;;4493835;31;19965;-79
2022/10/19 00:14:09;;;;;;;;;;;19.70;73.00;;;;;;4493034;31;20027;-79
2022/10/19 00:16:36;;;;;;;;;;;19.70;73.00;;;;;;4494265;31;19978;-79
2022/10/19 00:19:03;;;;;;;;;;;19.70;73.10;;;;;;4493980;31;19993;-79
2022/10/19 00:21:29;;;;;;;;;;;19.70;73.10;;;;;;4494259;31;19978;-79
2022/10/19 00:23:55;;;;;;;;;;;19.70;73.10;;;;;;4493930;31;19996;-79
2022/10/19 00:26:20;;;;;;;;;;;19.70;73.10;;;;;;4493885;31;19980;-79
2022/10/19 00:28:46;;;;;;;;;;;19.60;73.00;;;;;;4492747;31;19973;-80
2022/10/19 00:31:14;;;;;;;;;;;19.70;73.10;;;;;;4493841;31;20342;-79
2022/10/19 00:33:41;;;;;;;;;;;19.60;73.00;;;;;;4493879;31;20107;-79
2022/10/19 00:36:13;;;;;;;;;;;19.60;73.00;;;;;;4493688;31;20303;-80
2022/10/19 00:38:40;;;;;;;;;;;19.60;73.00;;;;;;4491752;31;20058;-79
2022/10/19 00:41:06;;;;;;;;;;;19.60;73.00;;;;;;4493683;31;19981;-79
2022/10/19 00:43:49;;;;;;;;;;;19.60;73.10;;;;;;4493369;31;19958;-79
2022/10/19 00:46:14;;;;;;;;;;;19.60;73.10;;;;;;4493723;31;20100;-79
2022/10/19 00:48:40;;;;;;;;;;;19.60;73.00;;;;;;4492375;31;20054;-80
2022/10/19 00:51:06;;;;;;;;;;;19.60;73.10;;;;;;4493514;31;20425;-79
2022/10/19 00:53:32;;;;;;;;;;;19.60;73.00;;;;;;4493267;31;19980;-79
2022/10/19 00:55:59;;;;;;;;;;;19.60;73.00;;;;;;4493406;31;19975;-79
2022/10/19 00:58:26;;;;;;;;;;;19.60;73.10;;;;;;4493711;31;19970;-79
2022/10/19 01:00:52;;;;;;;;;;;19.60;73.10;;;;;;4493324;31;20055;-79
2022/10/19 01:03:17;;;;;;;;;;;19.60;73.10;;;;;;4492993;31;20079;-79
2022/10/19 01:05:43;;;;;;;;;;;19.60;73.10;;;;;;4492709;31;20436;-79
2022/10/19 01:08:10;;;;;;;;;;;19.60;73.10;;;;;;4493143;31;19970;-80
2022/10/19 01:10:39;;;;;;;;;;;19.60;73.10;;;;;;4492828;31;20382;-79
2022/10/19 01:13:23;;;;;;;;;;;19.50;73.10;;;;;;4493095;31;19977;-79
2022/10/19 01:15:54;;;;;;;;;;;19.60;73.10;;;;;;4493126;31;19986;-79
2022/10/19 01:18:22;;;;;;;;;;;19.60;73.10;;;;;;4493153;31;19988;-80
2022/10/19 01:20:59;;;;;;;;;;;19.60;73.20;;;;;;4491950;31;20346;-80
2022/10/19 01:23:31;;;;;;;;;;;19.60;73.20;;;;;;4493010;31;20058;-79
2022/10/19 01:26:12;;;;;;;;;;;19.50;73.00;;;;;;4492503;31;20104;-80
2022/10/19 01:28:57;;;;;;;;;;;19.50;73.10;;;;;;4492936;31;20099;-80
2022/10/19 01:31:22;;;;;;;;;;;19.50;73.10;;;;;;4492887;31;20405;-79
2022/10/19 01:34:02;;;;;;;;;;;19.50;73.00;;;;;;4492777;31;19977;-79
2022/10/19 01:36:36;;;;;;;;;;;19.50;73.10;;;;;;4493459;31;19977;-80
2022/10/19 01:39:11;;;;;;;;;;;19.50;73.10;;;;;;4492867;31;20054;-79
2022/10/19 01:41:46;;;;;;;;;;;19.50;73.10;;;;;;4493160;31;19989;-79
2022/10/19 01:44:18;;;;;;;;;;;19.50;73.10;;;;;;4491605;31;19973;-79
2022/10/19 01:46:48;;;;;;;;;;;19.50;73.10;;;;;;4492471;31;20457;-79
2022/10/19 01:49:34;;;;;;;;;;;19.40;73.00;;;;;;4491562;31;20013;-79
2022/10/19 01:52:03;;;;;;;;;;;19.50;73.10;;;;;;4492297;31;20028;-79
2022/10/19 01:54:32;;;;;;;;;;;19.40;73.10;;;;;;4492713;31;20054;-80
2022/10/19 01:56:58;;;;;;;;;;;19.40;73.00;;;;;;4491768;31;19970;-80
2022/10/19 01:59:25;;;;;;;;;;;19.40;73.10;;;;;;4492334;31;20157;-79
2022/10/19 02:01:52;;;;;;;;;;;19.40;73.00;;;;;;4492156;31;20171;-80
2022/10/19 02:04:18;;;;;;;;;;;19.40;73.00;;;;;;4492540;31;19980;-79
2022/10/19 02:06:44;;;;;;;;;;;19.40;73.00;;;;;;4492370;31;20055;-79
2022/10/19 02:09:16;;;;;;;;;;;19.40;73.00;;;;;;4492230;31;19985;-80
2022/10/19 02:11:45;;;;;;;;;;;19.40;73.10;;;;;;4492822;31;20377;-80
2022/10/19 02:14:13;;;;;;;;;;;19.40;73.00;;;;;;4492474;31;20042;-79
2022/10/19 02:16:59;;;;;;;;;;;19.40;73.00;;;;;;4492585;31;19985;-79
2022/10/19 02:19:24;;;;;;;;;;;19.40;73.00;;;;;;4492270;32;20390;-79
2022/10/19 02:21:50;;;;;;;;;;;19.40;73.00;;;;;;4492782;31;20047;-79
2022/10/19 02:24:16;;;;;;;;;;;19.40;73.00;;;;;;4491181;32;19973;-79
2022/10/19 02:26:42;;;;;;;;;;;19.40;73.00;;;;;;4491420;32;19965;-80
2022/10/19 02:29:09;;;;;;;;;;;19.40;73.00;;;;;;4492234;31;19977;-79
2022/10/19 02:31:35;;;;;;;;;;;19.40;73.00;;;;;;4492494;31;20392;-79
2022/10/19 02:34:00;;;;;;;;;;;19.40;73.00;;;;;;4492539;31;20004;-79
2022/10/19 02:36:26;;;;;;;;;;;19.40;73.00;;;;;;4491480;32;20290;-79
2022/10/19 02:38:52;;;;;;;;;;;19.30;73.00;;;;;;4492406;31;20102;-80
2022/10/19 02:41:36;;;;;;;;;;;19.30;73.00;;;;;;4492178;31;20000;-80
2022/10/19 02:44:05;;;;;;;;;;;19.40;73.00;;;;;;4492550;32;20008;-80
2022/10/19 02:46:34;;;;;;;;;;;19.30;73.00;;;;;;4491903;31;20004;-79
2022/10/19 02:49:01;;;;;;;;;;;19.30;73.00;;;;;;4492231;31;19992;-79
2022/10/19 02:51:34;;;;;;;;;;;19.30;73.00;;;;;;4492257;31;20429;-79
2022/10/19 02:54:00;;;;;;;;;;;19.30;73.00;;;;;;4491846;31;20092;-80
2022/10/19 02:56:26;;;;;;;;;;;19.30;72.90;;;;;;4492384;31;20379;-80
2022/10/19 02:58:52;;;;;;;;;;;19.30;73.00;;;;;;4492501;31;19981;-79
2022/10/19 03:01:18;;;;;;;;;;;19.30;73.00;;;;;;4492231;31;19969;-79
2022/10/19 03:03:43;;;;;;;;;;;19.30;72.90;;;;;;4495551;31;20009;-79
2022/10/19 03:06:09;;;;;;;;;;;19.30;73.00;;;;;;4495260;31;19962;-80
2022/10/19 03:08:35;;;;;;;;;;;19.30;73.00;;;;;;4495901;31;20029;-79
2022/10/19 03:11:00;;;;;;;;;;;19.30;72.90;;;;;;4496120;31;19981;-78
2022/10/19 03:13:26;;;;;;;;;;;19.30;72.90;;;;;;4495192;31;20019;-79
2022/10/19 03:15:52;;;;;;;;;;;19.30;72.90;;;;;;4496053;31;19984;-79
2022/10/19 03:18:17;;;;;;;;;;;19.20;72.90;;;;;;4495862;31;19961;-79
2022/10/19 03:20:43;;;;;;;;;;;19.30;72.90;;;;;;4493885;31;20071;-80
2022/10/19 03:23:09;;;;;;;;;;;19.30;72.90;;;;;;4495367;31;19970;-80
2022/10/19 03:25:34;;;;;;;;;;;19.20;72.80;;;;;;4495294;31;20118;-80
2022/10/19 03:28:00;;;;;;;;;;;19.20;72.80;;;;;;4495458;31;19970;-80
2022/10/19 03:30:26;;;;;;;;;;;19.20;72.80;;;;;;4495202;31;20362;-79
2022/10/19 03:32:51;;;;;;;;;;;19.20;72.80;;;;;;4494032;31;19957;-79
2022/10/19 03:35:17;;;;;;;;;;;19.20;72.80;;;;;;4495212;31;20044;-79
2022/10/19 03:37:43;;;;;;;;;;;19.30;72.90;;;;;;4495025;31;20040;-79
2022/10/19 03:40:09;;;;;;;;;;;19.20;72.80;;;;;;4495171;31;20396;-79
2022/10/19 03:42:34;;;;;;;;;;;19.30;72.90;;;;;;4495130;31;20099;-79
2022/10/19 03:45:01;;;;;;;;;;;19.20;72.80;;;;;;4494137;31;20329;-79
2022/10/19 03:47:27;;;;;;;;;;;19.20;72.80;;;;;;4495259;31;20398;-80
2022/10/19 03:49:52;;;;;;;;;;;19.20;72.80;;;;;;4493991;31;19961;-79
2022/10/19 03:52:18;;;;;;;;;;;19.20;73.60;;;;;;4494504;31;19977;-80
2022/10/19 03:54:44;;;;;;;;;;;19.20;72.80;;;;;;4494052;31;20020;-80
2022/10/19 03:57:11;;;;;;;;;;;19.20;72.80;;;;;;4493899;31;19969;-79
2022/10/19 03:59:36;;;;;;;;;;;19.20;72.80;;;;;;4494341;31;20100;-79
2022/10/19 04:02:02;;;;;;;;;;;19.20;72.70;;;;;;4493315;31;19965;-79
2022/10/19 04:04:28;;;;;;;;;;;19.20;72.80;;;;;;4494222;31;19980;-79
2022/10/19 04:06:54;;;;;;;;;;;19.20;72.70;;;;;;4494049;31;20016;-79
2022/10/19 04:09:20;;;;;;;;;;;19.20;72.70;;;;;;4494262;31;20279;-79
2022/10/19 04:11:47;;;;;;;;;;;19.20;72.70;;;;;;4494327;31;20123;-79
2022/10/19 04:14:13;;;;;;;;;;;19.20;72.70;;;;;;4494004;31;20091;-79
2022/10/19 04:16:42;;;;;;;;;;;19.10;72.60;;;;;;4493956;31;19991;-79
2022/10/19 04:19:08;;;;;;;;;;;19.20;72.70;;;;;;4494017;31;19966;-79
2022/10/19 04:21:37;;;;;;;;;;;19.10;72.70;;;;;;4494134;31;20401;-79
2022/10/19 04:24:04;;;;;;;;;;;19.20;72.70;;;;;;4493694;31;19985;-79
2022/10/19 04:26:30;;;;;;;;;;;19.10;72.60;;;;;;4494141;31;19991;-79
2022/10/19 04:29:00;;;;;;;;;;;19.20;72.60;;;;;;4493948;31;20022;-79
2022/10/19 04:31:26;;;;;;;;;;;19.10;72.60;;;;;;4493672;31;19981;-79
2022/10/19 04:33:52;;;;;;;;;;;19.10;72.60;;;;;;4493773;31;20055;-79
2022/10/19 04:36:18;;;;;;;;;;;19.10;72.60;;;;;;4493808;31;20067;-79
2022/10/19 04:38:44;;;;;;;;;;;19.10;72.60;;;;;;4493557;31;20375;-79
2022/10/19 04:41:11;;;;;;;;;;;19.10;72.60;;;;;;4493264;31;20060;-79
2022/10/19 04:43:37;;;;;;;;;;;19.10;72.60;;;;;;4493446;31;20501;-79
2022/10/19 04:46:09;;;;;;;;;;;19.10;72.60;;;;;;4493363;31;20442;-79
2022/10/19 04:48:35;;;;;;;;;;;19.10;72.60;;;;;;4493516;31;20025;-79
2022/10/19 04:51:01;;;;;;;;;;;19.10;72.60;;;;;;4493418;31;20023;-81
2022/10/19 04:53:27;;;;;;;;;;;19.10;72.60;;;;;;4493318;31;19979;-79
2022/10/19 04:55:52;;;;;;;;;;;19.10;72.60;;;;;;4493189;31;20109;-79
2022/10/19 04:58:18;;;;;;;;;;;19.10;72.60;;;;;;4493267;31;19965;-79
2022/10/19 05:00:44;;;;;;;;;;;19.10;72.60;;;;;;4493202;31;20127;-79
2022/10/19 05:03:10;;;;;;;;;;;19.10;72.60;;;;;;4492990;31;20368;-79
2022/10/19 05:05:35;;;;;;;;;;;19.10;72.60;;;;;;4493190;31;19988;-78
2022/10/19 05:08:01;;;;;;;;;;;19.10;72.60;;;;;;4493177;31;19969;-79
2022/10/19 05:10:27;;;;;;;;;;;19.00;72.50;;;;;;4493241;31;20011;-79
2022/10/19 05:12:53;;;;;;;;;;;19.00;72.60;;;;;;4493309;31;19979;-79
2022/10/19 05:15:19;;;;;;;;;;;19.10;72.60;;;;;;4493171;31;19981;-79
2022/10/19 05:17:44;;;;;;;;;;;19.00;72.60;;;;;;4491754;31;20005;-79
2022/10/19 05:20:10;;;;;;;;;;;19.00;72.50;;;;;;4493082;31;19973;-79
2022/10/19 05:22:37;;;;;;;;;;;19.00;72.60;;;;;;4493076;31;19970;-79
2022/10/19 05:25:03;;;;;;;;;;;19.00;72.50;;;;;;4492831;31;19981;-79
2022/10/19 05:27:28;;;;;;;;;;;19.00;72.60;;;;;;4493032;31;20111;-79
2022/10/19 05:29:54;;;;;;;;;;;19.00;72.50;;;;;;4492742;31;20006;-79
2022/10/19 05:32:20;;;;;;;;;;;19.00;72.50;;;;;;4492796;31;19966;-79
2022/10/19 05:34:45;;;;;;;;;;;19.00;72.50;;;;;;4492577;31;20059;-79
2022/10/19 05:37:11;;;;;;;;;;;19.00;72.50;;;;;;4492926;31;20088;-79
2022/10/19 05:39:37;;;;;;;;;;;19.00;72.60;;;;;;4492894;31;19969;-79
2022/10/19 05:42:03;;;;;;;;;;;19.00;72.50;;;;;;4492902;31;19980;-79
2022/10/19 05:44:28;;;;;;;;;;;19.00;72.50;;;;;;4492807;31;19977;-80
2022/10/19 05:46:55;;;;;;;;;;;19.00;72.50;;;;;;4492905;31;19973;-79
2022/10/19 05:49:21;;;;;;;;;;;19.00;72.50;;;;;;4492970;31;19984;-79
2022/10/19 05:51:47;;;;;;;;;;;19.00;72.50;;;;;;4492904;31;19981;-79
2022/10/19 05:54:13;;;;;;;;;;;19.00;72.50;;;;;;4491467;31;19965;-79
2022/10/19 05:56:40;;;;;;;;;;;18.90;72.40;;;;;;4492949;31;20042;-79
2022/10/19 05:59:06;;;;;;;;;;;19.00;72.50;;;;;;4492993;31;20063;-79
2022/10/19 06:01:32;;;;;;;;;;;19.00;72.50;;;;;;4492966;31;20039;-79
2022/10/19 06:03:58;;;;;;;;;;;18.90;72.50;;;;;;4491587;32;19974;-79
2022/10/19 06:06:25;;;;;;;;;;;19.00;72.50;;;;;;4492708;31;20094;-79
2022/10/19 06:08:51;;;;;;;;;;;19.00;72.50;;;;;;4491586;32;20092;-79
2022/10/19 06:11:18;;;;;;;;;;;18.90;72.50;;;;;;4491719;32;20096;-79
2022/10/19 06:13:45;;;;;;;;;;;19.00;72.50;;;;;;4492666;31;20021;-79
2022/10/19 06:16:12;;;;;;;;;;;19.00;72.50;;;;;;4492790;31;20055;-79
2022/10/19 06:18:38;;;;;;;;;;;19.00;72.50;;;;;;4492336;31;19973;-78
2022/10/19 06:21:05;;;;;;;;;;;19.00;72.50;;;;;;4492850;31;19973;-79
2022/10/19 06:23:31;;;;;;;;;;;18.90;72.40;;;;;;4492619;31;20067;-79
2022/10/19 06:25:57;;;;;;;;;;;18.90;72.40;;;;;;4491461;32;19981;-79
2022/10/19 06:28:23;;;;;;;;;;;18.90;72.40;;;;;;4491487;32;20042;-76
2022/10/19 06:30:49;;;;;;;;;;;18.90;72.40;;;;;;4492316;32;19969;-75
2022/10/19 06:33:14;;;;;;;;;;;18.90;72.30;;;;;;4492344;32;20006;-76
2022/10/19 06:35:41;;;;;;;;;;;18.90;72.00;;;;;;4492409;31;19980;-75
2022/10/19 06:38:08;;;;;;;;;;;18.90;71.70;;;;;;4494828;31;20103;-77
2022/10/19 06:40:34;;;;;;;;;;;18.90;70.90;;;;;;4495747;31;20111;-77
2022/10/19 06:43:00;;;;;;;;;;;18.90;71.20;;;;;;4495479;31;20048;-77
2022/10/19 06:45:26;;;;;;;;;;;18.90;71.30;;;;;;4495438;31;20131;-77
2022/10/19 06:47:52;;;;;;;;;;;18.90;72.60;;;;;;4495617;31;19981;-77
2022/10/19 06:50:19;;;;;;;;;;;18.90;71.80;;;;;;4495608;31;19984;-77
2022/10/19 06:52:45;;;;;;;;;;;18.90;71.90;;;;;;4495564;31;20001;-78
2022/10/19 06:55:11;;;;;;;;;;;18.90;72.00;;;;;;4495454;31;19974;-77
2022/10/19 06:57:36;;;;;;;;;;;18.90;72.10;;;;;;4494961;31;20287;-78
2022/10/19 07:00:03;;;;;;;;;;;18.90;72.20;;;;;;4494972;31;20371;-77
2022/10/19 07:02:29;;;;;;;;;;;18.90;72.30;;;;;;4495110;31;19982;-78
2022/10/19 07:04:54;;;;;;;;;;;18.90;72.40;;;;;;4494063;31;19997;-77
2022/10/19 07:07:20;;;;;;;;;;;18.90;72.30;;;;;;4494667;31;19970;-77
2022/10/19 07:09:47;;;;;;;;;;;18.90;72.30;;;;;;4494789;31;20394;-78
2022/10/19 07:12:12;;;;;;;;;;;18.80;72.10;;;;;;4495052;31;20104;-78
2022/10/19 07:14:38;;;;;;;;;;;18.90;72.30;;;;;;4494860;31;19981;-77
2022/10/19 07:17:05;;;;;;;;;;;18.90;72.30;;;;;;4495047;31;20092;-78
2022/10/19 07:19:31;;;;;;;;;;;18.90;72.30;;;;;;4495366;31;19981;-78
2022/10/19 07:21:57;;;;;;;;;;;18.90;72.30;;;;;;4494809;31;20024;-78
2022/10/19 07:24:23;;;;;;;;;;;18.90;72.30;;;;;;4493761;31;20090;-78
2022/10/19 07:26:48;;;;;;;;;;;18.90;72.30;;;;;;4495036;31;20119;-76
2022/10/19 07:29:14;;;;;;;;;;;18.80;72.20;;;;;;4494669;31;20020;-78
2022/10/19 07:31:40;;;;;;;;;;;18.90;72.30;;;;;;4494716;31;19973;-77
2022/10/19 07:34:06;;;;;;;;;;;18.90;72.30;;;;;;4494610;31;19965;-78
2022/10/19 07:36:33;;;;;;;;;;;18.90;72.30;;;;;;4494459;31;20087;-78
2022/10/19 07:39:05;;;;;;;;;;;18.80;72.30;;;;;;4494372;31;19988;-77
2022/10/19 07:41:31;;;;;;;;;;;18.90;72.30;;;;;;4494545;31;20021;-79
2022/10/19 07:43:57;;;;;;;;;;;18.90;72.40;;;;;;4494627;31;20055;-78
2022/10/19 07:46:24;;;;;;;;;;;18.80;72.40;;;;;;4494505;31;19969;-78
2022/10/19 07:48:51;;;;;;;;;;;18.80;72.40;;;;;;4493025;31;19977;-77
2022/10/19 07:51:18;;;;;;;;;;;18.80;72.30;;;;;;4493391;31;20051;-77
2022/10/19 07:53:43;;;;;;;;;;;18.80;72.40;;;;;;4494462;31;20021;-76
2022/10/19 07:56:14;;;;;;;;;;;18.90;72.40;;;;;;4494296;31;19970;-75
2022/10/19 07:58:39;;;;;;;;;;;18.90;72.50;;;;;;4494585;31;19998;-77
2022/10/19 08:01:06;;;;;;;;;;;18.90;72.80;;;;;;4493212;31;19978;-78
2022/10/19 08:03:32;;;;;;;;;;;18.90;73.00;;;;;;4494198;31;20503;-78
2022/10/19 08:05:59;;;;;;;;;;;18.90;73.00;;;;;;4493900;31;19961;-77
2022/10/19 08:08:25;;;;;;;;;;;18.80;72.90;;;;;;4494027;31;20464;-79
2022/10/19 08:10:51;;;;;;;;;;;18.90;73.20;;;;;;4493371;31;19969;-78
2022/10/19 08:13:16;;;;;;;;;;;18.90;73.30;;;;;;4494209;31;20333;-77
2022/10/19 08:15:42;;;;;;;;;;;18.90;73.50;;;;;;4494022;31;19966;-78
2022/10/19 08:18:08;;;;;;;;;;;18.90;73.40;;;;;;4493885;31;19980;-79
2022/10/19 08:20:34;;;;;;;;;;;18.90;73.50;;;;;;4494047;31;19973;-78
2022/10/19 08:23:00;;;;;;;;;;;18.90;73.40;;;;;;4493614;31;20016;-77
2022/10/19 08:25:28;;;;;;;;;;;19.00;73.40;;;;;;4493756;31;19987;-79
2022/10/19 08:27:54;;;;;;;;;;;19.10;72.90;;;;;;4493829;31;19969;-78
2022/10/19 08:30:20;;;;;;;;;;;19.20;72.60;;;;;;4493788;31;19977;-78
2022/10/19 08:32:46;;;;;;;;;;;19.30;72.30;;;;;;4493389;31;20047;-76
2022/10/19 08:35:12;;;;;;;;;;;19.40;72.10;;;;;;4493715;31;20283;-77
2022/10/19 08:37:39;;;;;;;;;;;19.60;71.90;;;;;;4493871;31;19981;-76
2022/10/19 08:40:05;;;;;;;;;;;19.70;71.60;;;;;;4493936;31;20036;-77
2022/10/19 08:42:51;;;;;;;;;;;19.80;71.20;;;;;;4493948;31;20059;-78
2022/10/19 08:45:32;;;;;;;;;;;19.90;71.00;;;;;;4493769;31;20070;-76
2022/10/19 08:48:01;;;;;;;;;;;20.10;70.80;;;;;;4492516;31;19977;-75
2022/10/19 08:50:33;;;;;;;;;;;20.20;70.40;;;;;;4493667;31;19989;-76
2022/10/19 08:53:01;;;;;;;;;;;20.20;70.10;;;;;;4493884;31;19981;-77
2022/10/19 08:55:32;;;;;;;;;;;20.30;69.80;;;;;;4493373;31;20063;-77
2022/10/19 08:58:02;;;;;;;;;;;20.30;69.50;;;;;;4493524;31;19978;-77
2022/10/19 09:00:31;;;;;;;;;;;20.40;69.40;;;;;;4492464;31;20036;-74
2022/10/19 09:03:04;;;;;;;;;;;20.40;69.30;;;;;;4493160;31;20055;-80
2022/10/19 09:05:39;;;;;;;;;;;20.50;69.30;;;;;;4493356;31;20300;-80
2022/10/19 09:08:08;;;;;;;;;;;20.50;69.10;;;;;;4492801;31;20377;-81
2022/10/19 09:10:35;;;;;;;;;;;20.50;68.90;;;;;;4493545;31;20115;-80
2022/10/19 09:13:04;;;;;;;;;;;20.60;68.80;;;;;;4493225;31;20143;-80
2022/10/19 09:15:33;;;;;;;;;;;20.70;68.70;;;;;;4493072;31;20392;-80
2022/10/19 09:17:59;;;;;;;;;;;20.70;68.40;;;;;;4492884;31;19970;-80
2022/10/19 09:20:28;;;;;;;;;;;20.80;68.40;;;;;;4492825;31;20539;-79
2022/10/19 09:23:01;;;;;;;;;;;20.80;68.20;;;;;;4493114;31;20051;-79
2022/10/19 09:25:28;;;;;;;;;;;20.90;68.00;;;;;;4493309;31;20125;-79
2022/10/19 09:28:29;;;;;;;;;;;20.90;67.90;;;;;;4493076;31;20403;-78
2022/10/19 09:30:56;;;;;;;;;;;21.00;67.80;;;;;;4475344;32;20035;-79
2022/10/19 09:33:25;;;;;;;;;;;21.00;67.60;;;;;;4489459;31;20000;-78
2022/10/19 09:35:52;;;;;;;;;;;21.10;67.60;;;;;;4492881;31;19984;-79
2022/10/19 09:38:19;;;;;;;;;;;21.10;67.50;;;;;;4492668;31;19973;-78
2022/10/19 09:40:45;;;;;;;;;;;21.10;67.40;;;;;;4491499;31;20024;-79
2022/10/19 09:43:20;;;;;;;;;;;21.10;67.30;;;;;;4492867;31;19969;-80
2022/10/19 09:46:09;;;;;;;;;;;21.20;67.30;;;;;;4492958;31;20063;-79
2022/10/19 09:48:42;;;;;;;;;;;21.20;67.20;;;;;;4492733;31;20445;-79
2022/10/19 09:51:10;;;;;;;;;;;21.20;67.10;;;;;;4493029;31;20024;-78
2022/10/19 09:53:37;;;;;;;;;;;21.20;67.00;;;;;;4492806;31;20166;-78
2022/10/19 09:56:05;;;;;;;;;;;21.30;67.00;;;;;;4492931;31;19966;-78
2022/10/19 09:58:31;;;;;;;;;;;21.30;66.90;;;;;;4493007;31;19977;-77
2022/10/19 10:00:57;;;;;;;;;;;21.30;66.90;;;;;;4492511;31;19992;-80
2022/10/19 10:03:26;;;;;;;;;;;21.30;66.90;;;;;;4492919;31;20306;-79
2022/10/19 10:05:52;;;;;;;;;;;21.30;66.80;;;;;;4492434;32;20107;-77
2022/10/19 10:08:20;;;;;;;;;;;21.40;66.80;;;;;;4492570;31;19977;-77
2022/10/19 10:10:55;;;;;;;;;;;21.40;66.80;;;;;;4492930;31;20023;-75
2022/10/19 10:13:23;;;;;;;;;;;21.40;66.70;;;;;;4495861;31;20174;-78
2022/10/19 10:15:58;;;;;;;;;;;21.40;66.50;;;;;;4495682;31;20483;-79
2022/10/19 10:18:25;;;;;;;;;;;21.40;66.40;;;;;;4495263;31;19981;-79
2022/10/19 10:20:55;;;;;;;;;;;21.40;66.20;;;;;;4495774;31;20429;-79
2022/10/19 10:23:23;;;;;;;;;;;21.40;66.00;;;;;;4495756;31;19978;-79
2022/10/19 10:25:49;;;;;;;;;;;21.50;66.10;;;;;;4495630;31;20091;-78
2022/10/19 10:28:19;;;;;;;;;;;21.40;65.90;;;;;;4495841;31;20107;-77
2022/10/19 10:30:46;;;;;;;;;;;21.50;65.90;;;;;;4495869;31;20009;-78
2022/10/19 10:33:16;;;;;;;;;;;21.50;65.70;;;;;;4495452;31;20334;-77
2022/10/19 10:35:46;;;;;;;;;;;21.60;65.90;;;;;;4495463;31;19981;-81
2022/10/19 10:38:15;;;;;;;;;;;21.60;65.80;;;;;;4495694;31;19973;-75
2022/10/19 10:40:48;;;;;;;;;;;21.60;65.70;;;;;;4495633;31;20152;-77
2022/10/19 10:43:15;;;;;;;;;;;21.70;65.70;;;;;;4494405;31;19974;-80
2022/10/19 10:45:47;;;;;;;;;;;21.70;65.60;;;;;;4495179;31;19977;-77
2022/10/19 10:48:12;;;;;;;;;;;21.70;65.50;;;;;;4495063;31;20080;-78
2022/10/19 10:50:38;;;;;;;;;;;21.80;65.60;;;;;;4493853;31;19981;-78
2022/10/19 10:53:06;;;;;;;;;;;21.80;65.50;;;;;;4495059;31;20032;-79
2022/10/19 10:55:32;;;;;;;;;;;21.80;65.60;;;;;;4494612;31;19981;-77
2022/10/19 10:58:14;;;;;;;;;;;21.80;65.60;;;;;;4494969;31;19977;-78
2022/10/19 11:00:40;;;;;;;;;;;21.90;65.60;;;;;;4493801;31;20299;-78
2022/10/19 11:03:19;;;;;;;;;;;21.90;65.60;;;;;;4494537;31;20413;-80
2022/10/19 11:05:46;;;;;;;;;;;21.90;65.60;;;;;;4494677;31;20094;-78
2022/10/19 11:08:51;;;;;;;;;;;21.90;65.60;;;;;;4493562;31;19988;-79
2022/10/19 11:11:20;;;;;;;;;;;21.90;65.60;;;;;;4477137;32;20164;-80
2022/10/19 11:13:48;;;;;;;;;;;21.90;65.70;;;;;;4477046;32;20398;-79
2022/10/19 11:16:16;;;;;;;;;;;21.90;65.80;;;;;;4485432;31;19985;-79
2022/10/19 11:18:45;;;;;;;;;;;21.90;65.80;;;;;;4494567;31;19986;-80
2022/10/19 11:21:10;;;;;;;;;;;21.80;66.00;;;;;;4494715;31;20100;-78
2022/10/19 11:23:42;;;;;;;;;;;21.70;66.10;;;;;;4493904;31;20054;-79
2022/10/19 11:26:11;;;;;;;;;;;21.70;66.30;;;;;;4494655;31;20004;-82
2022/10/19 11:28:49;;;;;;;;;;;21.60;66.40;;;;;;4494369;31;20111;-80
2022/10/19 11:31:18;;;;;;;;;;;21.50;66.50;;;;;;4494721;31;20107;-80
2022/10/19 11:33:59;;;;;;;;;;;21.50;66.70;;;;;;4494654;31;20054;-79
2022/10/19 11:36:34;;;;;;;;;;;21.40;66.70;;;;;;4494751;31;20317;-81
2022/10/19 11:39:17;;;;;;;;;;;21.50;66.80;;;;;;4494430;31;20284;-82
2022/10/19 11:42:09;;;;;;;;;;;21.50;66.80;;;;;;4494945;31;20070;-81
2022/10/19 11:44:44;;;;;;;;;;;21.40;66.70;;;;;;4487014;31;19985;-83
2022/10/19 11:47:16;;;;;;;;;;;21.50;66.70;;;;;;4494905;31;19992;-79
2022/10/19 11:50:00;;;;;;;;;;;21.40;66.60;;;;;;4494289;31;20017;-78
2022/10/19 11:52:45;;;;;;;;;;;21.40;66.50;;;;;;4493806;31;19993;-79
2022/10/19 11:55:34;;;;;;;;;;;21.50;66.50;;;;;;4494180;31;19977;-79
2022/10/19 11:58:09;;;;;;;;;;;21.40;66.50;;;;;;4492963;31;20487;-77
2022/10/19 12:00:55;;;;;;;;;;;21.40;66.50;;;;;;4493913;31;19973;-76
2022/10/19 12:03:33;;;;;;;;;;;21.40;66.50;;;;;;4493916;31;20313;-77
2022/10/19 12:06:14;;;;;;;;;;;21.40;66.50;;;;;;4493668;31;19988;-79
2022/10/19 12:08:40;;;;;;;;;;;21.50;66.70;;;;;;4493087;31;19977;-76
2022/10/19 12:11:17;;;;;;;;;;;21.50;66.70;;;;;;4493350;31;20020;-79
2022/10/19 12:13:47;;;;;;;;;;;21.40;66.70;;;;;;4493821;31;20096;-78
2022/10/19 12:16:13;;;;;;;;;;;21.40;66.70;;;;;;4493207;31;20315;-80
2022/10/19 12:18:38;;;;;;;;;;;21.40;66.70;;;;;;4493090;31;20031;-79
2022/10/19 12:21:16;;;;;;;;;;;21.30;66.60;;;;;;4493138;31;20099;-81
2022/10/19 12:23:43;;;;;;;;;;;21.30;66.60;;;;;;4493643;31;19984;-79
2022/10/19 12:26:13;;;;;;;;;;;21.30;66.70;;;;;;4493595;31;20406;-78
2022/10/19 12:28:40;;;;;;;;;;;21.30;66.80;;;;;;4493377;31;20008;-77
2022/10/19 12:31:08;;;;;;;;;;;21.30;66.70;;;;;;4493076;31;20458;-78
2022/10/19 12:33:41;;;;;;;;;;;21.20;66.70;;;;;;4493196;31;20071;-80
2022/10/19 12:36:15;;;;;;;;;;;21.20;66.80;;;;;;4491771;31;20031;-78
2022/10/19 12:38:47;;;;;;;;;;;21.20;66.90;;;;;;4493217;31;19990;-82
2022/10/19 12:41:33;;;;;;;;;;;21.20;66.90;;;;;;4493251;31;19988;-80
2022/10/19 12:44:10;;;;;;;;;;;21.20;67.00;;;;;;4492824;31;19984;-83
2022/10/19 12:46:43;;;;;;;;;;;21.20;67.00;;;;;;4493213;31;20052;-79
2022/10/19 12:49:25;;;;;;;;;;;21.30;67.00;;;;;;4491889;31;20315;-78
2022/10/19 12:51:51;;;;;;;;;;;21.20;67.00;;;;;;4492636;31;20055;-81
2022/10/19 12:54:20;;;;;;;;;;;21.30;67.00;;;;;;4492962;31;19979;-81
2022/10/19 12:56:48;;;;;;;;;;;21.30;67.10;;;;;;4492607;31;20279;-80
2022/10/19 12:59:24;;;;;;;;;;;21.20;67.10;;;;;;4493073;31;19977;-82
2022/10/19 13:01:51;;;;;;;;;;;21.20;67.20;;;;;;4492929;31;20038;-80
2022/10/19 13:04:18;;;;;;;;;;;21.20;67.30;;;;;;4492552;31;19985;-81
2022/10/19 13:06:50;;;;;;;;;;;21.20;67.40;;;;;;4492681;31;19986;-81
2022/10/19 13:09:35;;;;;;;;;;;21.20;67.50;;;;;;4491899;31;20006;-79
2022/10/19 13:12:16;;;;;;;;;;;21.10;67.40;;;;;;4492844;31;20371;-78
2022/10/19 13:15:02;;;;;;;;;;;21.10;67.50;;;;;;4492557;31;19969;-81
2022/10/19 13:17:39;;;;;;;;;;;21.10;67.70;;;;;;4492784;31;19966;-78
2022/10/19 13:20:14;;;;;;;;;;;21.10;67.70;;;;;;4492960;31;20005;-77
2022/10/19 13:22:49;;;;;;;;;;;21.10;67.90;;;;;;4492681;31;20049;-80
2022/10/19 13:25:18;;;;;;;;;;;21.10;67.90;;;;;;4492386;31;20025;-82
2022/10/19 13:27:45;;;;;;;;;;;21.10;67.90;;;;;;4492644;31;19988;-80
2022/10/19 13:30:29;;;;;;;;;;;21.10;67.90;;;;;;4492775;31;19978;-79
2022/10/19 13:32:55;;;;;;;;;;;21.10;67.90;;;;;;4491078;31;20111;-81
2022/10/19 13:35:22;;;;;;;;;;;21.10;68.00;;;;;;4490792;31;19975;-80
2022/10/19 13:38:07;;;;;;;;;;;21.10;68.10;;;;;;4492640;31;19980;-80
2022/10/19 13:40:33;;;;;;;;;;;21.00;68.10;;;;;;4491293;31;20406;-79
2022/10/19 13:42:58;;;;;;;;;;;21.00;68.10;;;;;;4492572;31;19957;-81
2022/10/19 13:45:24;;;;;;;;;;;21.00;68.20;;;;;;4492223;31;20103;-79
2022/10/19 13:47:53;;;;;;;;;;;21.00;68.20;;;;;;4492109;31;20383;-79
2022/10/19 13:50:23;;;;;;;;;;;21.00;68.20;;;;;;4492514;31;20449;-81
2022/10/19 13:52:50;;;;;;;;;;;20.90;68.30;;;;;;4492313;31;19982;-82
2022/10/19 13:55:34;;;;;;;;;;;20.90;68.40;;;;;;4492168;31;19997;-85
2022/10/19 13:58:19;;;;;;;;;;;20.90;68.40;;;;;;4492801;31;20042;-81
2022/10/19 14:00:53;;;;;;;;;;;20.80;68.50;;;;;;4492873;31;19981;-81
2022/10/19 14:03:19;;;;;;;;;;;20.90;68.60;;;;;;4492696;31;19973;-80
2022/10/19 14:06:01;;;;;;;;;;;20.90;68.60;;;;;;4492594;32;20419;-81
2022/10/19 14:08:47;;;;;;;;;;;20.80;68.50;;;;;;4492604;31;19993;-78
2022/10/19 14:11:17;;;;;;;;;;;20.80;68.60;;;;;;4483698;32;20012;-78
2022/10/19 14:13:44;;;;;;;;;;;20.80;68.60;;;;;;4492568;31;19973;-79
2022/10/19 14:16:16;;;;;;;;;;;20.80;68.60;;;;;;4491958;31;20051;-79
2022/10/19 14:18:42;;;;;;;;;;;20.80;68.70;;;;;;4492666;31;20409;-79
2022/10/19 14:21:08;;;;;;;;;;;20.80;68.60;;;;;;4492321;32;19970;-80
2022/10/19 14:23:35;;;;;;;;;;;20.80;68.70;;;;;;4492011;31;19981;-78
2022/10/19 14:26:03;;;;;;;;;;;20.80;68.70;;;;;;4492436;31;19989;-77
2022/10/19 14:28:29;;;;;;;;;;;20.70;68.70;;;;;;4492181;31;19988;-78